Time;durP1;ratioP1;P1;durP2;ratioP2;P2;SDS_P1;SDS_P2;PMS_P1;PMS_P2;Temp;Humidity;BMP_temperature;BMP_pressure;BME280_temperature;BME280_humidity;BME280_pressure;Samples;Min_cycle;Max_cycle;Signal;HPM_P1;HPM_P2
2023/04/08 00:00:32;;;;;;;;;;;;;;;9.17;50.22;99888.25;5089605;28;19919;-42
2023/04/08 00:02:57;;;;;;;;;;;;;;;9.16;50.82;99889.28;5089358;28;20006;-42
2023/04/08 00:05:23;;;;;;;;;;;;;;;8.97;51.16;99896.88;5089663;28;19949;-41
2023/04/08 00:07:48;;;;;;;;;;;;;;;8.83;51.25;99900.38;5089529;28;19919;-42
2023/04/08 00:10:13;;;;;;;;;;;;;;;8.64;51.67;99895.69;5089540;28;19922;-42
2023/04/08 00:12:39;;;;;;;;;;;;;;;8.76;51.64;99902.16;5090246;28;19916;-42
2023/04/08 00:15:04;;;;;;;;;;;;;;;8.75;51.42;99900.50;5089429;28;19935;-42
2023/04/08 00:17:30;;;;;;;;;;;;;;;8.65;52.25;99898.16;5089628;28;19944;-42
2023/04/08 00:19:55;;;;;;;;;;;;;;;8.55;52.98;99898.47;5089983;28;19912;-42
2023/04/08 00:22:21;;;;;;;;;;;;;;;8.68;52.93;99905.75;5092864;28;19985;-41
2023/04/08 00:24:46;;;;;;;;;;;;;;;8.48;53.73;99908.16;5093656;28;19931;-41
2023/04/08 00:27:11;;;;;;;;;;;;;;;8.53;53.78;99907.59;5093762;28;20068;-41
2023/04/08 00:29:37;;;;;;;;;;;;;;;8.20;54.32;99903.50;5094026;28;19912;-41
2023/04/08 00:32:02;;;;;;;;;;;;;;;8.01;55.54;99907.56;5093663;28;20008;-41
2023/04/08 00:34:28;;;;;;;;;;;;;;;8.00;55.56;99900.59;5093919;28;19923;-42
2023/04/08 00:36:53;;;;;;;;;;;;;;;8.19;55.24;99898.41;5093131;28;20384;-41
2023/04/08 00:39:18;;;;;;;;;;;;;;;8.34;54.36;99899.19;5093836;28;20468;-41
2023/04/08 00:41:44;;;;;;;;;;;;;;;8.09;55.05;99892.53;5093358;28;19913;-41
2023/04/08 00:44:10;;;;;;;;;;;;;;;8.08;55.52;99896.22;5093511;28;19912;-40
2023/04/08 00:46:37;;;;;;;;;;;;;;;8.22;55.68;99905.97;5093588;28;20323;-41
2023/04/08 00:49:02;;;;;;;;;;;;;;;8.29;55.55;99903.41;5093221;28;19919;-41
2023/04/08 00:51:30;;;;;;;;;;;;;;;8.16;56.17;99910.16;5093112;28;19916;-42
2023/04/08 00:53:56;;;;;;;;;;;;;;;8.28;56.75;99904.41;5093366;28;19969;-42
2023/04/08 00:56:22;;;;;;;;;;;;;;;8.15;57.69;99884.69;5092702;28;19920;-42
2023/04/08 00:58:47;;;;;;;;;;;;;;;8.45;57.88;99915.66;5093303;28;19912;-42
2023/04/08 01:01:17;;;;;;;;;;;;;;;8.38;59.87;99918.22;5092793;28;19912;-41
2023/04/08 01:03:57;;;;;;;;;;;;;;;8.51;59.75;99915.75;5092825;28;19912;-41
2023/04/08 01:06:37;;;;;;;;;;;;;;;8.29;62.63;99916.69;5093402;28;19943;-41
2023/04/08 01:09:04;;;;;;;;;;;;;;;8.52;62.67;99928.00;5093438;28;19920;-41
2023/04/08 01:11:30;;;;;;;;;;;;;;;8.57;64.57;99930.94;5093125;28;19939;-41
2023/04/08 01:13:56;;;;;;;;;;;;;;;8.48;64.60;99937.34;5093028;28;20339;-42
2023/04/08 01:16:23;;;;;;;;;;;;;;;8.29;65.96;99925.44;5092703;28;20356;-42
2023/04/08 01:18:49;;;;;;;;;;;;;;;8.27;66.63;99927.47;5093195;28;20364;-42
2023/04/08 01:21:15;;;;;;;;;;;;;;;7.96;68.24;99927.66;5092573;28;19969;-42
2023/04/08 01:24:19;;;;;;;;;;;;;;;8.02;68.96;99934.88;5092510;28;19928;-42
2023/04/08 01:26:45;;;;;;;;;;;;;;;8.23;68.67;99932.31;5069763;28;19916;-42
2023/04/08 01:29:11;;;;;;;;;;;;;;;8.23;68.78;99932.31;5069678;28;20457;-42
2023/04/08 01:31:38;;;;;;;;;;;;;;;8.50;67.46;99927.38;5080258;28;20308;-42
2023/04/08 01:34:05;;;;;;;;;;;;;;;8.35;67.73;99934.50;5091791;28;19912;-42
2023/04/08 01:36:31;;;;;;;;;;;;;;;8.35;67.96;99931.84;5092610;28;19939;-41
2023/04/08 01:38:57;;;;;;;;;;;;;;;8.12;68.65;99935.41;5092389;28;19912;-42
2023/04/08 01:41:23;;;;;;;;;;;;;;;8.46;68.27;99933.25;5092349;28;19912;-41
2023/04/08 01:43:49;;;;;;;;;;;;;;;9.04;65.81;99931.44;5092190;28;19916;-41
2023/04/08 01:46:15;;;;;;;;;;;;;;;8.55;66.93;99935.59;5092192;28;19955;-41
2023/04/08 01:48:40;;;;;;;;;;;;;;;8.26;68.26;99935.59;5091907;28;20368;-41
2023/04/08 01:51:06;;;;;;;;;;;;;;;7.99;69.48;99938.69;5092113;28;19912;-41
2023/04/08 01:53:32;;;;;;;;;;;;;;;8.26;69.02;99933.75;5091761;28;20002;-41
2023/04/08 01:56:01;;;;;;;;;;;;;;;8.20;69.28;99943.25;5090225;28;20293;-42
2023/04/08 01:58:30;;;;;;;;;;;;;;;8.01;70.39;99943.81;5091913;28;19912;-42
2023/04/08 02:00:56;;;;;;;;;;;;;;;8.08;69.90;99950.03;5091911;28;19912;-42
2023/04/08 02:03:23;;;;;;;;;;;;;;;8.00;70.11;99956.25;5091771;28;20259;-42
2023/04/08 02:05:48;;;;;;;;;;;;;;;7.81;71.29;99954.94;5091587;28;19912;-40
2023/04/08 02:08:13;;;;;;;;;;;;;;;8.08;70.46;99950.03;5091733;28;19916;-42
2023/04/08 02:10:39;;;;;;;;;;;;;;;7.97;71.17;99950.47;5091548;28;19912;-40
2023/04/08 02:13:04;;;;;;;;;;;;;;;7.98;71.18;99947.66;5091461;28;19930;-42
2023/04/08 02:15:34;;;;;;;;;;;;;;;8.10;70.99;99950.66;5091328;28;19920;-42
2023/04/08 02:18:06;;;;;;;;;;;;;;;8.36;69.73;99950.22;5091763;28;19912;-41
2023/04/08 02:20:31;;;;;;;;;;;;;;;8.01;71.57;99965.00;5091413;28;19916;-42
2023/04/08 02:23:04;;;;;;;;;;;;;;;8.26;70.55;99936.41;5091296;28;19916;-41
2023/04/08 02:25:33;;;;;;;;;;;;;;;8.36;70.41;99960.84;5091629;28;19931;-42
2023/04/08 02:27:59;;;;;;;;;;;;;;;8.08;72.09;99963.28;5091427;28;19966;-42
2023/04/08 02:30:26;;;;;;;;;;;;;;;8.08;72.19;99965.94;5091459;28;19912;-41
2023/04/08 02:32:53;;;;;;;;;;;;;;;8.11;72.71;99967.38;5091347;28;19912;-41
2023/04/08 02:35:19;;;;;;;;;;;;;;;7.95;73.39;99963.09;5090783;28;20482;-42
2023/04/08 02:37:46;;;;;;;;;;;;;;;7.97;74.34;99961.09;5091235;28;20463;-41
2023/04/08 02:40:41;;;;;;;;;;;;;;;7.90;74.50;99962.81;5090979;28;20395;-42
2023/04/08 02:43:07;;;;;;;;;;;;;;;7.69;75.82;99959.03;5086078;28;19912;-42
2023/04/08 02:45:36;;;;;;;;;;;;;;;7.87;75.74;99963.19;5090516;28;19935;-42
2023/04/08 02:48:02;;;;;;;;;;;;;;;7.63;76.24;99965.03;5091128;28;19919;-42
2023/04/08 02:50:27;;;;;;;;;;;;;;;7.79;75.60;99950.84;5091144;28;20077;-42
2023/04/08 02:52:53;;;;;;;;;;;;;;;7.68;77.11;99956.56;5090817;28;20614;-42
2023/04/08 02:55:18;;;;;;;;;;;;;;;7.84;76.06;99961.69;5090046;28;19955;-43
2023/04/08 02:57:43;;;;;;;;;;;;;;;7.78;77.05;99967.72;5090941;28;19981;-41
2023/04/08 03:00:09;;;;;;;;;;;;;;;7.98;75.70;99968.03;5090582;28;19912;-42
2023/04/08 03:02:35;;;;;;;;;;;;;;;8.00;75.95;99974.78;5090620;28;19916;-40
2023/04/08 03:05:00;;;;;;;;;;;;;;;7.68;76.69;99969.81;5090825;28;19916;-41
2023/04/08 03:07:25;;;;;;;;;;;;;;;7.84;77.49;99977.59;5090610;28;19916;-43
2023/04/08 03:09:51;;;;;;;;;;;;;;;7.91;76.29;99983.00;5090540;28;19920;-40
2023/04/08 03:12:16;;;;;;;;;;;;;;;7.67;78.66;99990.16;5090846;28;19995;-41
2023/04/08 03:14:41;;;;;;;;;;;;;;;7.68;77.81;99988.34;5090413;28;19912;-41
2023/04/08 03:17:06;;;;;;;;;;;;;;;8.06;77.83;99989.16;5090872;28;20011;-40
2023/04/08 03:19:32;;;;;;;;;;;;;;;8.59;74.91;99979.31;5090625;28;20321;-41
2023/04/08 03:21:57;;;;;;;;;;;;;;;7.80;77.22;99984.25;5090726;28;20289;-41
2023/04/08 03:24:22;;;;;;;;;;;;;;;7.52;79.22;99991.94;5090126;28;19920;-40
2023/04/08 03:26:48;;;;;;;;;;;;;;;7.38;80.38;99986.41;5090561;28;19938;-41
2023/04/08 03:29:13;;;;;;;;;;;;;;;7.50;80.42;99986.00;5090449;28;20316;-40
2023/04/08 03:31:38;;;;;;;;;;;;;;;7.46;80.70;99980.22;5090602;28;19923;-41
2023/04/08 03:34:03;;;;;;;;;;;;;;;7.52;80.90;99984.84;5090077;28;19919;-41
2023/04/08 03:36:29;;;;;;;;;;;;;;;7.63;79.96;99989.72;5090231;28;19924;-40
2023/04/08 03:38:55;;;;;;;;;;;;;;;7.55;80.53;99983.66;5090299;28;20109;-41
2023/04/08 03:41:20;;;;;;;;;;;;;;;7.28;81.88;99991.13;5090101;28;19959;-42
2023/04/08 03:43:46;;;;;;;;;;;;;;;7.09;82.93;99992.41;5090137;28;19998;-41
2023/04/08 03:46:11;;;;;;;;;;;;;;;7.15;83.33;99997.00;5090497;28;19995;-41
2023/04/08 03:48:36;;;;;;;;;;;;;;;7.18;83.20;99991.34;5090583;28;19918;-40
2023/04/08 03:51:01;;;;;;;;;;;;;;;7.00;83.75;99998.72;5090602;28;19919;-40
2023/04/08 03:53:28;;;;;;;;;;;;;;;7.10;83.34;99993.22;5090375;28;19938;-41
2023/04/08 03:55:54;;;;;;;;;;;;;;;7.37;82.82;99989.25;5091445;28;19916;-42
2023/04/08 03:58:19;;;;;;;;;;;;;;;7.70;80.93;99996.94;5094702;28;20410;-41
2023/04/08 04:00:45;;;;;;;;;;;;;;;7.81;80.21;99999.97;5096186;28;19919;-42
2023/04/08 04:03:11;;;;;;;;;;;;;;;7.79;80.48;99998.53;5113884;28;19912;-42
2023/04/08 04:05:37;;;;;;;;;;;;;;;7.71;80.76;99996.78;5114195;28;19919;-41
2023/04/08 04:08:02;;;;;;;;;;;;;;;7.63;81.30;100004.75;5115181;28;19912;-41
2023/04/08 04:10:28;;;;;;;;;;;;;;;7.70;80.27;100004.88;5114817;28;19919;-41
2023/04/08 04:12:53;;;;;;;;;;;;;;;7.52;81.58;99999.88;5114807;28;19998;-41
2023/04/08 04:15:18;;;;;;;;;;;;;;;7.50;81.98;100004.53;5113909;28;19969;-41
2023/04/08 04:17:43;;;;;;;;;;;;;;;7.68;81.76;100013.00;5113910;28;19912;-41
2023/04/08 04:20:09;;;;;;;;;;;;;;;7.43;81.48;100009.72;5099385;28;19969;-41
2023/04/08 04:22:34;;;;;;;;;;;;;;;7.66;81.70;100015.00;5093301;28;19912;-42
2023/04/08 04:25:00;;;;;;;;;;;;;;;7.56;81.63;100014.44;5093077;28;19924;-40
2023/04/08 04:27:25;;;;;;;;;;;;;;;7.70;80.82;100026.09;5093139;28;19939;-41
2023/04/08 04:29:50;;;;;;;;;;;;;;;7.69;81.05;100022.63;5093186;28;19998;-41
2023/04/08 04:32:15;;;;;;;;;;;;;;;7.56;82.30;100014.44;5093229;28;20394;-41
2023/04/08 04:34:41;;;;;;;;;;;;;;;7.63;81.57;100010.06;5093225;28;19912;-41
2023/04/08 04:37:06;;;;;;;;;;;;;;;7.50;82.98;100010.69;5093089;28;20004;-42
2023/04/08 04:39:31;;;;;;;;;;;;;;;7.38;83.39;100017.38;5093134;28;19951;-40
2023/04/08 04:41:57;;;;;;;;;;;;;;;7.39;83.97;100019.84;5093409;28;19920;-42
2023/04/08 04:44:22;;;;;;;;;;;;;;;7.55;83.39;100010.94;5092946;28;19920;-40
2023/04/08 04:46:48;;;;;;;;;;;;;;;7.87;82.15;100017.00;5092606;28;19977;-41
2023/04/08 04:49:13;;;;;;;;;;;;;;;7.74;82.80;100022.06;5092971;28;20356;-41
2023/04/08 04:51:38;;;;;;;;;;;;;;;7.69;82.82;100019.97;5093088;28;20010;-41
2023/04/08 04:54:04;;;;;;;;;;;;;;;7.75;82.19;100019.25;5093049;28;19919;-41
2023/04/08 04:56:29;;;;;;;;;;;;;;;7.58;84.10;100020.38;5092870;28;20346;-41
2023/04/08 04:58:55;;;;;;;;;;;;;;;7.60;83.64;100021.03;5092770;28;19916;-42
2023/04/08 05:01:20;;;;;;;;;;;;;;;7.49;84.15;100018.78;5093186;28;20441;-41
2023/04/08 05:03:45;;;;;;;;;;;;;;;7.82;82.66;100022.00;5092809;28;19912;-41
2023/04/08 05:06:11;;;;;;;;;;;;;;;7.97;82.46;100022.03;5107986;28;19919;-41
2023/04/08 05:08:36;;;;;;;;;;;;;;;7.91;82.32;100030.72;5111932;28;20465;-42
2023/04/08 05:11:01;;;;;;;;;;;;;;;8.09;81.63;100025.91;5113460;28;19912;-41
2023/04/08 05:13:27;;;;;;;;;;;;;;;8.11;81.15;100028.38;5113362;28;19935;-41
2023/04/08 05:15:52;;;;;;;;;;;;;;;8.26;81.06;100031.03;5113174;28;20062;-41
2023/04/08 05:18:18;;;;;;;;;;;;;;;8.06;81.69;100034.22;5113142;28;19912;-41
2023/04/08 05:20:43;;;;;;;;;;;;;;;7.94;81.58;100039.13;5112645;28;19934;-41
2023/04/08 05:23:09;;;;;;;;;;;;;;;7.89;81.83;100022.13;5112731;28;20326;-42
2023/04/08 05:25:34;;;;;;;;;;;;;;;7.98;81.38;100044.91;5112803;28;20360;-42
2023/04/08 05:28:00;;;;;;;;;;;;;;;8.12;81.54;100048.56;5111795;28;19923;-41
2023/04/08 05:30:25;;;;;;;;;;;;;;;7.86;81.79;100046.31;5112003;28;19915;-41
2023/04/08 05:32:51;;;;;;;;;;;;;;;7.95;81.28;100047.91;5111912;28;20382;-41
2023/04/08 05:35:16;;;;;;;;;;;;;;;7.47;83.27;100057.88;5111458;27;19945;-41
2023/04/08 05:37:41;;;;;;;;;;;;;;;7.43;84.02;100046.78;5111672;28;19911;-42
2023/04/08 05:40:07;;;;;;;;;;;;;;;7.48;84.30;100046.25;5111917;27;19911;-42
2023/04/08 05:42:32;;;;;;;;;;;;;;;7.80;83.83;100048.66;5112095;28;19912;-41
2023/04/08 05:44:58;;;;;;;;;;;;;;;8.11;81.81;100053.06;5112313;28;20437;-41
2023/04/08 05:47:23;;;;;;;;;;;;;;;8.30;81.36;100045.56;5111670;28;19923;-41
2023/04/08 05:49:48;;;;;;;;;;;;;;;8.46;80.52;100052.59;5111756;28;19915;-42
2023/04/08 05:52:14;;;;;;;;;;;;;;;8.38;80.36;100048.97;5112461;28;19919;-41
2023/04/08 05:54:42;;;;;;;;;;;;;;;8.12;80.73;100057.34;5112458;28;19923;-42
2023/04/08 05:57:07;;;;;;;;;;;;;;;8.39;79.54;100053.25;5112311;28;20307;-42
2023/04/08 05:59:33;;;;;;;;;;;;;;;8.54;79.45;100048.00;5107797;28;19911;-42
2023/04/08 06:01:58;;;;;;;;;;;;;;;8.43;79.34;100052.94;5091764;28;19935;-41
2023/04/08 06:04:23;;;;;;;;;;;;;;;8.69;78.77;100050.66;5094430;28;19916;-41
2023/04/08 06:06:49;;;;;;;;;;;;;;;8.84;77.78;100049.84;5091769;28;20301;-41
2023/04/08 06:09:14;;;;;;;;;;;;;;;9.06;76.64;100054.19;5091962;28;19912;-41
2023/04/08 06:11:40;;;;;;;;;;;;;;;8.92;76.54;100063.00;5086908;28;20292;-42
2023/04/08 06:14:05;;;;;;;;;;;;;;;8.91;77.07;100051.56;5092079;28;19998;-41
2023/04/08 06:16:30;;;;;;;;;;;;;;;8.96;76.87;100053.66;5088377;28;20336;-43
2023/04/08 06:18:55;;;;;;;;;;;;;;;8.76;77.70;100056.06;5090557;28;20358;-42
2023/04/08 06:21:21;;;;;;;;;;;;;;;9.43;75.41;100062.19;5088974;28;19935;-42
2023/04/08 06:23:46;;;;;;;;;;;;;;;9.70;74.52;100056.09;5089095;28;20011;-47
2023/04/08 06:26:12;;;;;;;;;;;;;;;9.41;76.01;100064.19;5090258;28;20292;-47
2023/04/08 06:28:37;;;;;;;;;;;;;;;9.69;74.62;100058.94;5090309;28;19912;-47
2023/04/08 06:31:02;;;;;;;;;;;;;;;9.68;73.50;100065.28;5088839;28;19935;-47
2023/04/08 06:33:28;;;;;;;;;;;;;;;10.02;72.72;100059.25;5087951;28;20368;-43
2023/04/08 06:36:03;;;;;;;;;;;;;;;9.91;71.64;100057.13;5087555;28;20332;-42
2023/04/08 06:38:28;;;;;;;;;;;;;;;10.28;70.36;100052.47;5089021;28;19916;-42
2023/04/08 06:40:55;;;;;;;;;;;;;;;10.34;70.09;100062.41;5090439;28;19919;-42
2023/04/08 06:43:20;;;;;;;;;;;;;;;10.41;69.68;100052.59;5090628;28;19912;-43
2023/04/08 06:45:46;;;;;;;;;;;;;;;10.66;69.00;100049.47;5090653;28;19912;-42
2023/04/08 06:48:11;;;;;;;;;;;;;;;10.36;70.49;100061.19;5090655;28;20007;-43
2023/04/08 06:50:36;;;;;;;;;;;;;;;10.49;69.19;100054.28;5088682;28;19951;-42
2023/04/08 06:53:02;;;;;;;;;;;;;;;10.89;67.32;100049.19;5090004;28;19927;-43
2023/04/08 06:55:27;;;;;;;;;;;;;;;10.67;68.82;100053.78;5089606;28;20237;-43
2023/04/08 06:57:52;;;;;;;;;;;;;;;11.40;66.15;100047.94;5090038;28;19916;-43
2023/04/08 07:00:17;;;;;;;;;;;;;;;12.04;63.93;100052.75;5089602;28;20386;-42
2023/04/08 07:02:43;;;;;;;;;;;;;;;11.95;62.57;100053.16;5089617;28;19959;-41
2023/04/08 07:05:09;;;;;;;;;;;;;;;12.13;62.10;100046.19;5089769;28;20013;-41
2023/04/08 07:07:35;;;;;;;;;;;;;;;11.57;63.07;100049.19;5089350;28;19959;-43
2023/04/08 07:10:00;;;;;;;;;;;;;;;11.70;63.60;100051.06;5090075;28;20378;-43
2023/04/08 07:12:25;;;;;;;;;;;;;;;12.03;62.59;100047.63;5089539;28;19935;-43
2023/04/08 07:14:51;;;;;;;;;;;;;;;12.49;61.17;100052.94;5098051;28;19916;-43
2023/04/08 07:17:17;;;;;;;;;;;;;;;12.97;59.74;100057.09;5098061;28;20285;-43
2023/04/08 07:19:42;;;;;;;;;;;;;;;12.77;59.93;100064.34;5100762;28;19912;-43
2023/04/08 07:22:08;;;;;;;;;;;;;;;12.93;59.92;100052.38;5095420;28;19919;-41
2023/04/08 07:24:33;;;;;;;;;;;;;;;13.82;57.58;100050.69;5099163;28;19927;-41
2023/04/08 07:26:58;;;;;;;;;;;;;;;14.39;55.96;100059.50;5099298;28;19919;-41
2023/04/08 07:29:24;;;;;;;;;;;;;;;14.31;54.22;100045.56;5095885;28;19970;-42
2023/04/08 07:31:50;;;;;;;;;;;;;;;14.75;52.70;100049.84;5091446;28;19919;-42
2023/04/08 07:34:15;;;;;;;;;;;;;;;14.44;53.80;100058.81;5099248;28;19912;-42
2023/04/08 07:36:41;;;;;;;;;;;;;;;14.96;52.15;100053.13;5101143;28;20253;-42
2023/04/08 07:39:06;;;;;;;;;;;;;;;15.15;51.82;100048.56;5097553;28;19912;-42
2023/04/08 07:41:31;;;;;;;;;;;;;;;14.84;52.59;100050.38;5099724;28;19965;-40
2023/04/08 07:43:56;;;;;;;;;;;;;;;14.58;53.41;100057.69;5094770;28;19924;-42
2023/04/08 07:46:22;;;;;;;;;;;;;;;14.36;54.31;100065.28;5099183;28;19923;-42
2023/04/08 07:48:47;;;;;;;;;;;;;;;13.78;55.04;100054.84;5098099;28;20020;-42
2023/04/08 07:51:13;;;;;;;;;;;;;;;14.35;54.11;100050.25;5094230;28;19923;-42
2023/04/08 07:53:39;;;;;;;;;;;;;;;14.12;53.94;100056.22;5090811;28;19995;-42
2023/04/08 07:56:14;;;;;;;;;;;;;;;14.90;52.37;100051.34;5087887;28;20367;-42
2023/04/08 07:58:40;;;;;;;;;;;;;;;14.76;52.24;100048.00;5086104;28;19938;-42
2023/04/08 08:01:22;;;;;;;;;;;;;;;14.72;52.16;100047.63;5088040;28;19916;-44
2023/04/08 08:03:48;;;;;;;;;;;;;;;14.45;53.11;100055.09;5091835;28;19916;-42
2023/04/08 08:06:13;;;;;;;;;;;;;;;13.86;53.98;100065.28;5099458;28;19918;-42
2023/04/08 08:08:39;;;;;;;;;;;;;;;14.08;53.25;100058.50;5096449;28;19977;-43
2023/04/08 08:11:04;;;;;;;;;;;;;;;14.76;51.88;100050.69;5100984;28;19919;-41
2023/04/08 08:13:30;;;;;;;;;;;;;;;14.92;51.30;100055.44;5092970;28;19916;-42
2023/04/08 08:15:55;;;;;;;;;;;;;;;15.06;51.36;100053.44;5089488;28;20447;-42
2023/04/08 08:18:21;;;;;;;;;;;;;;;14.20;52.35;100061.31;5089254;28;19912;-42
2023/04/08 08:20:46;;;;;;;;;;;;;;;14.94;50.67;100055.22;5087957;28;20391;-42
2023/04/08 08:23:11;;;;;;;;;;;;;;;14.89;49.92;100057.75;5089686;28;19966;-42
2023/04/08 08:25:37;;;;;;;;;;;;;;;14.33;52.60;100059.53;5085194;28;19916;-42
2023/04/08 08:28:02;;;;;;;;;;;;;;;15.20;50.68;100057.56;5079042;28;19924;-42
2023/04/08 08:30:27;;;;;;;;;;;;;;;15.23;50.40;100050.91;5088356;28;19939;-42
2023/04/08 08:32:52;;;;;;;;;;;;;;;15.01;49.98;100056.78;5088703;28;20360;-42
2023/04/08 08:35:18;;;;;;;;;;;;;;;15.77;48.97;100053.72;5088657;28;20395;-42
2023/04/08 08:37:43;;;;;;;;;;;;;;;15.80;49.13;100051.41;5085480;28;19916;-43
2023/04/08 08:40:09;;;;;;;;;;;;;;;15.39;48.77;100050.31;5087443;28;19920;-42
2023/04/08 08:42:34;;;;;;;;;;;;;;;15.25;48.69;100051.53;5089781;28;20023;-40
2023/04/08 08:45:03;;;;;;;;;;;;;;;15.52;48.99;100043.94;5092857;28;19919;-42
2023/04/08 08:47:29;;;;;;;;;;;;;;;15.60;48.14;100045.47;5093460;28;19934;-41
2023/04/08 08:49:55;;;;;;;;;;;;;;;14.75;50.47;100047.16;5093308;28;19912;-41
2023/04/08 08:52:20;;;;;;;;;;;;;;;14.25;50.24;100044.59;5093064;28;19919;-42
2023/04/08 08:54:46;;;;;;;;;;;;;;;14.78;49.44;100040.56;5093310;28;19912;-43
2023/04/08 08:57:20;;;;;;;;;;;;;;;14.74;50.12;100037.50;5093495;28;20288;-41
2023/04/08 08:59:46;;;;;;;;;;;;;;;15.52;47.88;100035.88;5091495;28;19986;-41
2023/04/08 09:02:25;;;;;;;;;;;;;;;15.84;47.46;100038.34;5093385;28;19912;-41
2023/04/08 09:05:02;;;;;;;;;;;;;;;15.30;45.39;100043.63;5091728;28;19966;-42
2023/04/08 09:07:28;;;;;;;;;;;;;;;15.31;44.83;100034.53;5090677;28;20003;-42
2023/04/08 09:09:54;;;;;;;;;;;;;;;15.20;45.21;100040.66;5092678;28;19912;-46
2023/04/08 09:12:20;;;;;;;;;;;;;;;15.04;45.77;100045.63;5092674;28;20354;-46
2023/04/08 09:14:45;;;;;;;;;;;;;;;15.41;44.46;100028.63;5091735;28;20411;-46
2023/04/08 09:17:11;;;;;;;;;;;;;;;16.11;43.86;100033.34;5092606;28;19916;-46
2023/04/08 09:19:36;;;;;;;;;;;;;;;15.87;45.85;100050.47;5092552;28;19920;-46
2023/04/08 09:22:05;;;;;;;;;;;;;;;14.98;47.00;100040.31;5089698;28;20334;-47
2023/04/08 09:24:31;;;;;;;;;;;;;;;14.96;46.85;100037.06;5092111;28;19920;-46
2023/04/08 09:26:56;;;;;;;;;;;;;;;14.56;47.71;100032.13;5092709;28;19924;-46
2023/04/08 09:29:22;;;;;;;;;;;;;;;14.59;47.96;100037.88;5090466;28;20416;-46
2023/04/08 09:31:52;;;;;;;;;;;;;;;14.62;48.35;100032.09;5093217;28;20367;-47
2023/04/08 09:34:19;;;;;;;;;;;;;;;14.62;48.11;100034.78;5092948;28;20006;-46
2023/04/08 09:36:45;;;;;;;;;;;;;;;14.55;48.02;100031.31;5093063;28;19916;-47
2023/04/08 09:39:10;;;;;;;;;;;;;;;14.45;45.25;100028.34;5093017;28;20003;-46
2023/04/08 09:41:37;;;;;;;;;;;;;;;14.14;46.36;100034.59;5091513;28;20420;-48
2023/04/08 09:44:04;;;;;;;;;;;;;;;14.46;45.98;100029.97;5090290;28;19973;-47
2023/04/08 09:46:32;;;;;;;;;;;;;;;14.94;45.49;100028.41;5090443;28;19947;-48
2023/04/08 09:49:04;;;;;;;;;;;;;;;15.57;44.14;100036.03;5090997;28;20374;-47
2023/04/08 09:51:37;;;;;;;;;;;;;;;15.02;44.63;100036.13;5090995;28;20275;-48
2023/04/08 09:54:05;;;;;;;;;;;;;;;14.56;46.11;100046.31;5088141;28;20343;-47
2023/04/08 09:56:35;;;;;;;;;;;;;;;14.91;45.73;100042.25;5091023;28;19916;-47
2023/04/08 09:59:10;;;;;;;;;;;;;;;15.38;45.58;100031.75;5088539;28;19919;-46
2023/04/08 10:01:40;;;;;;;;;;;;;;;15.73;45.50;100033.72;5091146;28;19922;-46
2023/04/08 10:04:08;;;;;;;;;;;;;;;15.61;45.21;100037.22;5090817;28;20049;-46
2023/04/08 10:06:34;;;;;;;;;;;;;;;15.68;44.99;100036.28;5091038;28;19912;-47
2023/04/08 10:09:01;;;;;;;;;;;;;;;15.01;46.70;100034.53;5088076;28;19923;-48
2023/04/08 10:11:27;;;;;;;;;;;;;;;14.75;47.83;100027.63;5090886;28;19912;-47
2023/04/08 10:13:52;;;;;;;;;;;;;;;14.68;47.87;100022.34;5090783;28;19912;-46
2023/04/08 10:16:27;;;;;;;;;;;;;;;14.85;47.97;100025.25;5089969;28;19920;-47
2023/04/08 10:18:56;;;;;;;;;;;;;;;14.79;48.12;100012.72;5090418;28;19912;-47
2023/04/08 10:21:30;;;;;;;;;;;;;;;14.98;47.17;100017.03;5088307;28;19912;-46
2023/04/08 10:23:58;;;;;;;;;;;;;;;15.08;47.16;100019.19;5090050;28;19920;-47
2023/04/08 10:26:34;;;;;;;;;;;;;;;15.20;47.96;100014.69;5090313;28;19926;-40
2023/04/08 10:29:18;;;;;;;;;;;;;;;15.42;47.52;100017.69;5087428;28;20360;-41
2023/04/08 10:31:46;;;;;;;;;;;;;;;15.59;46.31;100009.78;5083181;28;19923;-41
2023/04/08 10:34:16;;;;;;;;;;;;;;;16.19;45.35;100000.75;5082410;28;19916;-41
2023/04/08 10:36:41;;;;;;;;;;;;;;;16.33;45.09;99995.97;5087900;28;19916;-42
2023/04/08 10:39:07;;;;;;;;;;;;;;;16.44;44.72;100004.25;5086435;28;19916;-41
2023/04/08 10:41:32;;;;;;;;;;;;;;;16.39;44.31;100003.09;5090585;28;19919;-41
2023/04/08 10:43:57;;;;;;;;;;;;;;;15.82;44.84;100000.16;5090762;28;20391;-41
2023/04/08 10:46:26;;;;;;;;;;;;;;;16.63;42.59;99991.50;5090260;28;19912;-41
2023/04/08 10:49:03;;;;;;;;;;;;;;;16.33;43.32;99992.47;5090174;28;20065;-41
2023/04/08 10:51:31;;;;;;;;;;;;;;;16.38;42.82;99985.34;5087575;28;20671;-42
2023/04/08 10:54:04;;;;;;;;;;;;;;;16.53;43.63;99984.03;5087363;28;19920;-41
2023/04/08 10:56:29;;;;;;;;;;;;;;;17.03;42.25;99980.75;5089334;28;20049;-41
2023/04/08 10:58:55;;;;;;;;;;;;;;;17.34;41.80;99978.63;5089879;28;19994;-41
2023/04/08 11:01:21;;;;;;;;;;;;;;;16.66;42.65;99973.03;5089463;28;19912;-41
2023/04/08 11:03:46;;;;;;;;;;;;;;;16.46;43.92;99969.91;5090079;28;20285;-42
2023/04/08 11:06:12;;;;;;;;;;;;;;;16.18;44.57;99972.31;5088937;28;19919;-41
2023/04/08 11:08:37;;;;;;;;;;;;;;;15.93;44.22;99964.47;5090143;28;19923;-41
2023/04/08 11:11:07;;;;;;;;;;;;;;;16.15;43.96;99967.38;5089565;28;19935;-41
2023/04/08 11:13:33;;;;;;;;;;;;;;;16.21;44.22;99962.94;5089271;28;19912;-41
2023/04/08 11:15:59;;;;;;;;;;;;;;;16.60;43.53;99960.53;5089650;28;20350;-41
2023/04/08 11:18:25;;;;;;;;;;;;;;;16.55;43.80;99963.13;5089470;28;20342;-41
2023/04/08 11:20:50;;;;;;;;;;;;;;;16.01;45.49;99956.09;5089191;28;19963;-41
2023/04/08 11:23:16;;;;;;;;;;;;;;;15.97;46.10;99957.59;5088297;28;19959;-42
2023/04/08 11:25:43;;;;;;;;;;;;;;;16.06;44.72;99949.19;5089570;28;20332;-42
2023/04/08 11:28:08;;;;;;;;;;;;;;;16.57;45.16;99944.91;5089154;28;20325;-42
2023/04/08 11:30:33;;;;;;;;;;;;;;;16.73;43.31;99938.75;5088855;28;19923;-41
2023/04/08 11:32:59;;;;;;;;;;;;;;;16.32;45.00;99939.81;5089255;28;19923;-41
2023/04/08 11:35:28;;;;;;;;;;;;;;;15.94;44.20;99941.97;5089645;28;20329;-42
2023/04/08 11:37:54;;;;;;;;;;;;;;;16.36;45.06;99941.78;5089487;28;19912;-41
2023/04/08 11:40:20;;;;;;;;;;;;;;;16.56;43.99;99935.19;5086289;28;20348;-41
2023/04/08 11:42:46;;;;;;;;;;;;;;;16.84;42.99;99929.06;5090251;28;20409;-36
2023/04/08 11:45:13;;;;;;;;;;;;;;;16.50;44.28;99922.72;5088403;28;19969;-36
2023/04/08 11:47:38;;;;;;;;;;;;;;;15.97;45.45;99927.25;5090387;28;20021;-36
2023/04/08 11:50:04;;;;;;;;;;;;;;;15.77;45.86;99924.94;5089781;28;19962;-37
2023/04/08 11:52:48;;;;;;;;;;;;;;;15.86;46.01;99912.81;5090122;28;20403;-37
2023/04/08 11:55:29;;;;;;;;;;;;;;;16.19;44.58;99916.72;5090477;28;20452;-37
2023/04/08 11:57:55;;;;;;;;;;;;;;;15.75;45.66;99902.88;5089863;28;19949;-38
2023/04/08 12:00:22;;;;;;;;;;;;;;;15.89;45.48;99911.50;5089605;28;20340;-44
2023/04/08 12:02:47;;;;;;;;;;;;;;;15.75;46.93;99901.00;5089795;28;19912;-35
2023/04/08 12:05:13;;;;;;;;;;;;;;;15.88;45.93;99888.38;5090411;28;19973;-36
2023/04/08 12:07:38;;;;;;;;;;;;;;;15.97;46.57;99898.56;5090416;28;19994;-35
2023/04/08 12:10:04;;;;;;;;;;;;;;;16.11;46.77;99895.63;5090461;28;20004;-37
2023/04/08 12:12:30;;;;;;;;;;;;;;;16.36;46.06;99898.81;5090422;28;19912;-37
2023/04/08 12:14:55;;;;;;;;;;;;;;;15.70;46.17;99890.13;5090441;28;20007;-36
2023/04/08 12:17:20;;;;;;;;;;;;;;;15.79;47.38;99890.63;5091838;28;19923;-37
2023/04/08 12:19:46;;;;;;;;;;;;;;;16.22;46.05;99873.28;5094453;28;20005;-36
2023/04/08 12:22:11;;;;;;;;;;;;;;;16.89;45.33;99885.34;5093860;28;19999;-37
2023/04/08 12:24:36;;;;;;;;;;;;;;;17.09;44.24;99883.00;5093920;28;19920;-37
2023/04/08 12:27:03;;;;;;;;;;;;;;;16.83;44.25;99879.06;5094220;28;20125;-36
2023/04/08 12:29:28;;;;;;;;;;;;;;;16.38;45.35;99877.09;5094326;28;20302;-36
2023/04/08 12:31:54;;;;;;;;;;;;;;;15.85;47.00;99878.97;5094158;28;19922;-36
2023/04/08 12:34:20;;;;;;;;;;;;;;;16.16;46.23;99875.06;5094076;28;19920;-36
2023/04/08 12:36:46;;;;;;;;;;;;;;;16.00;46.77;99873.09;5093424;28;20364;-36
2023/04/08 12:39:11;;;;;;;;;;;;;;;16.11;46.61;99858.03;5093728;28;19912;-36
2023/04/08 12:41:36;;;;;;;;;;;;;;;16.27;45.88;99865.34;5093987;28;19930;-37
2023/04/08 12:44:02;;;;;;;;;;;;;;;16.05;46.78;99867.84;5093630;28;19912;-36